createdAt,value
2023-02-17T00:01:23.049Z,40.22
2023-02-17T00:03:51.389Z,39.45
2023-02-17T00:06:21.456Z,41.55
2023-02-17T00:08:49.610Z,46.42
2023-02-17T00:11:17.940Z,43.30
2023-02-17T00:13:46.370Z,47.17
2023-02-17T00:16:17.745Z,49.58
2023-02-17T00:18:45.612Z,51.33
2023-02-17T00:21:18.656Z,52.80
2023-02-17T00:23:47.579Z,50.60
2023-02-17T00:26:16.105Z,49.72
2023-02-17T00:28:43.992Z,55.58
2023-02-17T00:31:16.727Z,48.92
2023-02-17T00:33:44.387Z,51.50
2023-02-17T00:36:19.158Z,51.70
2023-02-17T00:38:49.988Z,54.05
2023-02-17T00:41:18.255Z,55.47
2023-02-17T00:43:45.748Z,51.53
2023-02-17T00:46:13.413Z,53.35
2023-02-17T00:48:41.175Z,51.83
2023-02-17T00:51:09.200Z,58.13
2023-02-17T00:53:37.090Z,68.05
2023-02-17T00:56:05.569Z,52.90
2023-02-17T00:58:33.215Z,63.53
2023-02-17T01:01:00.634Z,69.57
2023-02-17T01:03:28.541Z,65.05
2023-02-17T01:05:56.679Z,65.40
2023-02-17T01:08:24.841Z,66.03
2023-02-17T01:10:53.040Z,63.65
2023-02-17T01:13:21.143Z,55.75
2023-02-17T01:15:51.191Z,54.92
2023-02-17T01:18:20.491Z,55.05
2023-02-17T01:20:48.019Z,59.78
2023-02-17T01:23:16.147Z,54.60
2023-02-17T01:25:45.726Z,59.55
2023-02-17T01:28:19.816Z,55.85
2023-02-17T01:30:47.729Z,58.50
2023-02-17T01:33:15.428Z,58.08
2023-02-17T01:35:42.895Z,56.72
2023-02-17T01:38:10.477Z,60.92
2023-02-17T01:40:37.874Z,57.08
2023-02-17T01:43:06.527Z,60.40
2023-02-17T01:45:37.959Z,58.75
2023-02-17T01:48:24.044Z,55.70
2023-02-17T01:50:54.471Z,54.78
2023-02-17T01:53:27.044Z,54.22
2023-02-17T01:55:55.249Z,56.28
2023-02-17T01:58:24.360Z,61.65
2023-02-17T02:00:53.703Z,56.75
2023-02-17T02:03:21.592Z,64.20
2023-02-17T02:05:48.927Z,59.97
2023-02-17T02:08:16.703Z,62.20
2023-02-17T02:10:44.110Z,62.22
2023-02-17T02:13:11.521Z,61.83
2023-02-17T02:16:18.429Z,60.17
2023-02-17T02:19:12.192Z,61.22
2023-02-17T02:21:53.930Z,59.38
2023-02-17T02:24:31.479Z,59.33
2023-02-17T02:27:26.982Z,58.92
2023-02-17T02:30:29.144Z,54.90
2023-02-17T02:32:56.560Z,50.17
2023-02-17T02:35:40.239Z,45.67
2023-02-17T02:38:16.941Z,51.50
2023-02-17T02:40:50.221Z,48.10
2023-02-17T02:43:17.980Z,48.80
2023-02-17T02:45:45.449Z,48.22
2023-02-17T02:48:13.001Z,53.45
2023-02-17T02:50:49.517Z,49.03
2023-02-17T02:53:35.086Z,53.78
2023-02-17T02:56:17.774Z,55.47
2023-02-17T02:59:17.607Z,57.08
2023-02-17T03:02:06.177Z,56.50
2023-02-17T03:04:59.506Z,54.22
2023-02-17T03:09:58.292Z,48.83
2023-02-17T03:12:26.615Z,49.33
2023-02-17T03:15:02.746Z,48.25
2023-02-17T03:17:33.589Z,47.35
2023-02-17T03:20:05.120Z,44.00
2023-02-17T03:22:45.749Z,45.53
2023-02-17T03:25:13.408Z,46.55
2023-02-17T03:27:40.760Z,41.78
2023-02-17T03:30:08.818Z,42.20
2023-02-17T03:32:36.556Z,41.58
2023-02-17T03:35:04.222Z,39.75
2023-02-17T03:37:31.597Z,39.88
2023-02-17T03:39:58.954Z,37.30
2023-02-17T03:42:26.370Z,42.10
2023-02-17T03:44:53.755Z,40.08
2023-02-17T03:47:21.074Z,39.08
2023-02-17T03:49:48.461Z,40.45
2023-02-17T03:52:15.830Z,39.85
2023-02-17T03:54:43.311Z,37.25
2023-02-17T03:57:10.825Z,38.08
2023-02-17T03:59:38.253Z,40.92
2023-02-17T04:02:05.872Z,38.33
2023-02-17T04:04:33.239Z,38.55
2023-02-17T04:07:00.594Z,43.88
2023-02-17T04:09:27.878Z,41.10
2023-02-17T04:11:55.581Z,41.72
2023-02-17T04:14:22.925Z,40.90
2023-02-17T04:16:50.888Z,40.33
2023-02-17T04:19:20.927Z,43.20
2023-02-17T04:21:48.572Z,43.85
2023-02-17T04:24:15.905Z,40.35
2023-02-17T04:26:43.397Z,45.55
2023-02-17T04:29:10.805Z,44.25
2023-02-17T04:31:38.353Z,47.03
2023-02-17T04:34:05.809Z,45.33
2023-02-17T04:36:33.216Z,43.97
2023-02-17T04:39:00.557Z,47.10
2023-02-17T04:41:28.011Z,49.50
2023-02-17T04:43:55.683Z,46.40
2023-02-17T04:46:23.341Z,43.60
2023-02-17T04:48:52.084Z,49.67
2023-02-17T04:51:19.501Z,46.53
2023-02-17T04:53:46.937Z,47.78
2023-02-17T04:56:14.293Z,47.40
2023-02-17T04:58:41.679Z,44.15
2023-02-17T05:01:09.132Z,46.75
2023-02-17T05:03:42.945Z,45.33
2023-02-17T05:06:10.326Z,45.17
2023-02-17T05:08:37.744Z,47.55
2023-02-17T05:11:05.287Z,45.83
2023-02-17T05:13:34.232Z,46.08
2023-02-17T05:16:01.686Z,49.30
2023-02-17T05:18:29.113Z,42.85
2023-02-17T05:20:56.617Z,50.30
2023-02-17T05:23:24.148Z,51.80
2023-02-17T05:25:51.500Z,48.25
2023-02-17T05:28:18.919Z,51.70
2023-02-17T05:30:48.102Z,49.47
2023-02-17T05:33:15.574Z,47.00
2023-02-17T05:35:43.179Z,49.08
2023-02-17T05:38:10.751Z,52.70
2023-02-17T05:40:38.098Z,41.13
2023-02-17T05:43:05.443Z,45.25
2023-02-17T05:45:32.812Z,46.75
2023-02-17T05:48:00.702Z,47.25
2023-02-17T05:50:28.072Z,42.70
2023-02-17T05:52:55.422Z,52.88
2023-02-17T05:55:22.893Z,47.90
2023-02-17T05:57:50.468Z,49.15
2023-02-17T06:00:18.211Z,46.35
2023-02-17T06:02:45.598Z,45.78
2023-02-17T06:05:13.133Z,48.15
2023-02-17T06:07:41.218Z,47.45
2023-02-17T06:10:10.305Z,46.75
2023-02-17T06:12:39.551Z,45.17
2023-02-17T06:15:08.917Z,46.17
2023-02-17T06:17:37.696Z,44.70
2023-02-17T06:20:06.193Z,38.25
2023-02-17T06:22:33.805Z,42.88
2023-02-17T06:25:01.239Z,36.90
2023-02-17T06:27:38.859Z,38.83
2023-02-17T06:30:07.769Z,38.35
2023-02-17T06:32:35.613Z,41.50
2023-02-17T06:35:06.154Z,42.03
2023-02-17T06:37:38.308Z,37.33
2023-02-17T06:40:06.776Z,39.30
2023-02-17T06:42:34.417Z,35.38
2023-02-17T06:45:05.507Z,36.78
2023-02-17T06:47:34.346Z,34.55
2023-02-17T06:50:01.961Z,39.00
2023-02-17T06:52:29.338Z,34.90
2023-02-17T06:54:58.038Z,34.67
2023-02-17T06:57:25.747Z,35.90
2023-02-17T06:59:53.379Z,31.75
2023-02-17T07:02:21.263Z,30.50
2023-02-17T07:04:50.717Z,30.23
2023-02-17T07:07:18.193Z,31.45
2023-02-17T07:09:45.695Z,31.25
2023-02-17T07:12:13.120Z,29.13
2023-02-17T07:14:41.878Z,31.58
2023-02-17T07:17:09.484Z,28.90
2023-02-17T07:19:37.065Z,31.52
2023-02-17T07:22:06.937Z,28.85
2023-02-17T07:24:34.302Z,30.20
2023-02-17T07:27:01.987Z,26.75
2023-02-17T07:29:36.207Z,30.25
2023-02-17T07:32:04.387Z,27.10
2023-02-17T07:34:31.844Z,30.15
2023-02-17T07:37:00.635Z,29.73
2023-02-17T07:39:28.549Z,27.38
2023-02-17T07:42:01.344Z,27.08
2023-02-17T07:44:29.033Z,24.77
2023-02-17T07:46:58.414Z,28.48
2023-02-17T07:49:25.860Z,25.73
2023-02-17T07:51:53.528Z,23.83
2023-02-17T07:54:21.180Z,25.10
2023-02-17T07:56:48.588Z,25.40
2023-02-17T07:59:16.828Z,23.67
2023-02-17T08:01:44.331Z,21.95
2023-02-17T08:04:12.267Z,20.92
2023-02-17T08:06:40.233Z,20.60
2023-02-17T08:09:39.831Z,17.55
2023-02-17T08:12:28.362Z,20.00
2023-02-17T08:14:58.282Z,20.75
2023-02-17T08:17:25.734Z,18.00
2023-02-17T08:19:53.292Z,17.63
2023-02-17T08:22:20.685Z,16.73
2023-02-17T08:24:48.711Z,17.58
2023-02-17T08:27:17.133Z,16.38
2023-02-17T08:29:44.879Z,18.30
2023-02-17T08:32:13.550Z,14.98
2023-02-17T08:34:42.161Z,16.50
2023-02-17T08:37:09.968Z,16.27
2023-02-17T08:39:38.045Z,17.60
2023-02-17T08:42:06.122Z,16.85
2023-02-17T08:44:36.033Z,16.00
2023-02-17T08:47:05.163Z,15.40
2023-02-17T08:49:33.079Z,16.48
2023-02-17T08:52:03.935Z,14.90
2023-02-17T08:54:31.476Z,21.40
2023-02-17T08:56:58.895Z,17.65
2023-02-17T08:59:26.448Z,19.60
2023-02-17T09:01:54.163Z,16.17
2023-02-17T09:04:25.375Z,19.08
2023-02-17T09:06:56.791Z,16.65
2023-02-17T09:09:27.197Z,20.25
2023-02-17T09:11:56.514Z,15.63
2023-02-17T09:14:24.214Z,16.17
2023-02-17T09:16:52.795Z,19.05
2023-02-17T09:19:20.751Z,16.02
2023-02-17T09:21:48.576Z,18.48
2023-02-17T09:24:17.252Z,19.73
2023-02-17T09:26:44.756Z,16.70
2023-02-17T09:29:12.201Z,19.30
2023-02-17T09:31:39.963Z,19.30
2023-02-17T09:34:07.514Z,24.35
2023-02-17T09:36:39.360Z,22.52
2023-02-17T09:39:07.542Z,22.65
2023-02-17T09:41:42.791Z,18.30
2023-02-17T09:44:32.161Z,17.98
2023-02-17T09:47:14.826Z,17.92
2023-02-17T09:49:46.249Z,17.27
2023-02-17T09:52:43.904Z,17.05
2023-02-17T09:55:22.240Z,15.40
2023-02-17T09:58:18.451Z,18.67
2023-02-17T10:00:51.786Z,17.58
2023-02-17T10:03:43.688Z,19.67
2023-02-17T10:06:28.432Z,22.40
2023-02-17T10:09:17.245Z,16.92
2023-02-17T10:11:56.676Z,18.85
2023-02-17T10:14:49.280Z,15.38
2023-02-17T10:17:34.790Z,19.90
2023-02-17T10:20:16.283Z,17.58
2023-02-17T10:22:47.010Z,17.48
2023-02-17T10:25:20.388Z,17.88
2023-02-17T10:28:20.284Z,20.40
2023-02-17T10:31:01.287Z,18.58
2023-02-17T10:33:52.560Z,20.50
2023-02-17T10:36:45.406Z,22.60
2023-02-17T10:39:23.329Z,21.95
2023-02-17T10:41:52.345Z,20.88
2023-02-17T10:44:25.603Z,21.83
2023-02-17T10:46:54.642Z,23.77
2023-02-17T10:49:24.336Z,24.48
2023-02-17T10:51:52.063Z,20.88
2023-02-17T10:54:41.630Z,21.73
2023-02-17T10:57:12.246Z,22.42
2023-02-17T10:59:44.974Z,25.42
2023-02-17T11:02:31.210Z,24.58
2023-02-17T11:04:59.984Z,21.90
2023-02-17T11:07:35.052Z,27.25
2023-02-17T11:10:07.328Z,22.35
2023-02-17T11:12:44.913Z,24.90
2023-02-17T11:15:23.435Z,22.65
2023-02-17T11:17:51.673Z,24.23
2023-02-17T11:20:22.916Z,24.80
2023-02-17T11:23:16.987Z,22.30
2023-02-17T11:25:54.909Z,24.00
2023-02-17T11:28:26.496Z,25.85
2023-02-17T11:30:57.560Z,24.83
2023-02-17T11:33:34.182Z,18.80
2023-02-17T11:36:02.825Z,24.17
2023-02-17T11:38:42.311Z,25.92
2023-02-17T11:41:11.378Z,22.75
2023-02-17T11:43:39.970Z,23.58
2023-02-17T11:46:25.856Z,23.35
2023-02-17T11:49:20.261Z,24.10
2023-02-17T11:51:56.355Z,21.35
2023-02-17T11:54:58.819Z,21.92
2023-02-17T11:57:32.838Z,25.10
2023-02-17T12:00:15.384Z,23.55
2023-02-17T12:03:20.258Z,26.33
2023-02-17T12:05:54.908Z,23.35
2023-02-17T12:08:47.712Z,23.88
2023-02-17T12:11:27.908Z,22.83
2023-02-17T12:14:13.204Z,21.63
2023-02-17T12:16:43.578Z,21.40
2023-02-17T12:19:29.253Z,22.55
2023-02-17T12:22:40.827Z,21.80
2023-02-17T12:25:28.991Z,19.00
2023-02-17T12:27:56.475Z,21.83
2023-02-17T12:30:47.297Z,23.27
2023-02-17T12:33:46.104Z,15.30
2023-02-17T12:36:16.393Z,18.45
2023-02-17T12:38:57.126Z,22.13
2023-02-17T12:41:36.996Z,21.42
2023-02-17T12:44:10.290Z,19.33
2023-02-17T12:46:44.441Z,18.38
2023-02-17T12:49:27.043Z,18.50
2023-02-17T12:52:06.098Z,20.95
2023-02-17T12:54:43.604Z,19.23
2023-02-17T12:57:11.223Z,18.15
2023-02-17T12:59:41.504Z,18.98
2023-02-17T13:02:20.840Z,16.27
2023-02-17T13:04:58.030Z,19.58
2023-02-17T13:07:43.691Z,19.20
2023-02-17T13:10:39.607Z,16.88
2023-02-17T13:13:14.264Z,21.23
2023-02-17T13:15:44.176Z,15.77
2023-02-17T13:18:28.432Z,22.30
2023-02-17T13:21:16.444Z,16.83
2023-02-17T13:23:45.843Z,16.52
2023-02-17T13:26:21.275Z,21.30
2023-02-17T13:28:53.750Z,21.25
2023-02-17T13:31:26.848Z,23.63
2023-02-17T13:33:59.187Z,15.95
2023-02-17T13:36:29.423Z,22.17
2023-02-17T13:39:05.132Z,18.35
2023-02-17T13:41:46.401Z,19.25
2023-02-17T13:44:33.700Z,19.20
2023-02-17T13:47:17.489Z,20.17
2023-02-17T13:49:53.466Z,22.77
2023-02-17T13:52:26.071Z,20.30
2023-02-17T13:55:00.505Z,15.80
2023-02-17T13:57:36.260Z,21.20
2023-02-17T14:00:21.470Z,22.02
2023-02-17T14:02:58.994Z,24.33
2023-02-17T14:05:40.533Z,23.40
2023-02-17T14:08:27.984Z,20.45
2023-02-17T14:10:56.091Z,22.60
2023-02-17T14:13:23.992Z,16.60
2023-02-17T14:16:00.984Z,22.10
2023-02-17T14:18:32.401Z,18.60
2023-02-17T14:21:09.343Z,24.17
2023-02-17T14:23:52.874Z,21.23
2023-02-17T14:26:47.651Z,24.83
2023-02-17T14:29:19.590Z,16.38
2023-02-17T14:31:50.455Z,22.20
2023-02-17T14:34:30.503Z,22.63
2023-02-17T14:37:17.589Z,26.83
2023-02-17T14:39:45.038Z,20.17
2023-02-17T14:42:12.647Z,19.88
2023-02-17T14:44:40.744Z,22.50
2023-02-17T14:47:08.339Z,25.27
2023-02-17T14:49:35.717Z,19.58
2023-02-17T14:52:19.052Z,24.08
2023-02-17T14:54:46.508Z,22.88
2023-02-17T14:57:15.461Z,21.98
2023-02-17T14:59:43.503Z,21.80
2023-02-17T15:02:18.311Z,19.88
2023-02-17T15:04:45.845Z,20.70
2023-02-17T15:07:17.890Z,25.25
2023-02-17T15:09:46.912Z,22.90
2023-02-17T15:12:21.849Z,22.60
2023-02-17T15:14:49.469Z,25.75
2023-02-17T15:17:17.322Z,24.90
2023-02-17T15:19:47.745Z,26.35
2023-02-17T15:22:18.416Z,29.33
2023-02-17T15:24:48.360Z,20.55
2023-02-17T15:27:17.005Z,19.92
2023-02-17T15:29:44.566Z,21.30
2023-02-17T15:32:19.247Z,21.58
2023-02-17T15:34:47.020Z,26.48
2023-02-17T15:37:14.547Z,25.05
2023-02-17T15:39:43.408Z,24.98
2023-02-17T15:42:13.745Z,20.20
2023-02-17T15:44:49.726Z,24.48
2023-02-17T15:47:19.265Z,26.10
2023-02-17T15:49:47.438Z,28.63
2023-02-17T15:52:15.431Z,26.90
2023-02-17T15:54:43.782Z,25.50
2023-02-17T15:57:25.887Z,19.33
2023-02-17T15:59:57.753Z,22.42
2023-02-17T16:02:26.311Z,26.37
2023-02-17T16:04:53.715Z,21.92
2023-02-17T16:07:21.094Z,25.52
2023-02-17T16:09:48.505Z,27.58
2023-02-17T16:12:26.324Z,31.52
2023-02-17T16:14:53.812Z,24.00
2023-02-17T16:17:22.916Z,32.05
2023-02-17T16:19:51.766Z,27.67
2023-02-17T16:22:19.280Z,29.10
2023-02-17T16:24:47.172Z,28.98
2023-02-17T16:27:16.717Z,22.90
2023-02-17T16:29:44.118Z,28.27
2023-02-17T16:32:12.738Z,25.90
2023-02-17T16:34:43.200Z,27.52
2023-02-17T16:37:16.379Z,27.45
2023-02-17T16:39:44.268Z,29.00
2023-02-17T16:42:12.448Z,27.45
2023-02-17T16:44:39.792Z,27.55
2023-02-17T16:47:07.349Z,18.13
2023-02-17T16:49:37.740Z,26.75
2023-02-17T16:52:25.070Z,27.08
2023-02-17T16:54:52.734Z,32.17
2023-02-17T16:57:20.801Z,22.50
2023-02-17T16:59:52.456Z,29.05
2023-02-17T17:02:21.631Z,32.15
2023-02-17T17:04:49.374Z,26.23
2023-02-17T17:07:16.947Z,27.00
2023-02-17T17:10:06.925Z,26.40
2023-02-17T17:12:35.225Z,24.77
2023-02-17T17:15:02.757Z,25.38
2023-02-17T17:17:31.450Z,31.60
2023-02-17T17:19:58.872Z,26.17
2023-02-17T17:22:26.283Z,31.65
2023-02-17T17:24:56.936Z,34.55
2023-02-17T17:27:24.542Z,34.70
2023-02-17T17:29:51.876Z,32.40
2023-02-17T17:32:19.744Z,25.75
2023-02-17T17:34:47.320Z,26.77
2023-02-17T17:37:15.231Z,27.02
2023-02-17T17:39:49.845Z,30.35
2023-02-17T17:42:17.439Z,36.33
2023-02-17T17:44:44.897Z,32.58
2023-02-17T17:47:21.289Z,29.92
2023-02-17T17:49:58.229Z,33.17
2023-02-17T17:52:26.256Z,30.45
2023-02-17T17:54:56.277Z,28.60
2023-02-17T17:57:23.836Z,30.92
2023-02-17T17:59:51.412Z,28.70
2023-02-17T18:02:18.757Z,27.13
2023-02-17T18:04:46.948Z,33.20
2023-02-17T18:07:14.766Z,24.38
2023-02-17T18:09:42.082Z,26.02
2023-02-17T18:12:13.625Z,28.13
2023-02-17T18:14:43.301Z,30.48
2023-02-17T18:17:12.186Z,31.92
2023-02-17T18:19:40.127Z,32.38
2023-02-17T18:22:07.754Z,28.02
2023-02-17T18:24:57.824Z,24.05
2023-02-17T18:27:25.416Z,29.63
2023-02-17T18:29:59.812Z,29.77
2023-02-17T18:32:27.322Z,32.10
2023-02-17T18:34:57.146Z,32.63
2023-02-17T18:37:24.852Z,30.88
2023-02-17T18:39:52.417Z,33.90
2023-02-17T18:42:20.041Z,36.47
2023-02-17T18:44:51.049Z,25.10
2023-02-17T18:47:18.412Z,27.33
2023-02-17T18:49:46.136Z,34.40
2023-02-17T18:52:13.640Z,29.83
2023-02-17T18:54:45.430Z,30.17
2023-02-17T18:57:13.165Z,32.22
2023-02-17T18:59:40.661Z,30.70
2023-02-17T19:02:09.683Z,33.03
2023-02-17T19:04:37.583Z,32.25
2023-02-17T19:07:07.017Z,31.27
2023-02-17T19:09:35.927Z,39.67
2023-02-17T19:12:03.625Z,29.20
2023-02-17T19:14:34.318Z,38.55
2023-02-17T19:17:01.945Z,36.05
2023-02-17T19:19:31.523Z,40.85
2023-02-17T19:21:59.318Z,31.45
2023-02-17T19:24:26.943Z,38.67
2023-02-17T19:26:54.633Z,31.48
2023-02-17T19:29:22.907Z,35.55
2023-02-17T19:31:50.451Z,36.38
2023-02-17T19:34:19.973Z,37.30
2023-02-17T19:36:47.673Z,36.47
2023-02-17T19:39:15.103Z,41.90
2023-02-17T19:41:42.652Z,33.15
2023-02-17T19:44:11.269Z,34.90
2023-02-17T19:46:39.508Z,40.25
2023-02-17T19:49:07.522Z,31.23
2023-02-17T19:51:35.570Z,39.20
2023-02-17T19:54:04.428Z,37.17
2023-02-17T19:56:33.391Z,46.42
2023-02-17T19:59:00.972Z,38.83
2023-02-17T20:01:31.078Z,36.15
2023-02-17T20:04:02.358Z,43.85
2023-02-17T20:06:35.079Z,36.47
2023-02-17T20:09:06.088Z,46.10
2023-02-17T20:11:34.022Z,40.25
2023-02-17T20:14:02.284Z,42.78
2023-02-17T20:16:32.685Z,47.97
2023-02-17T20:19:04.272Z,46.33
2023-02-17T20:21:34.910Z,44.00
2023-02-17T20:24:02.817Z,55.42
2023-02-17T20:26:33.132Z,49.38
2023-02-17T20:29:01.711Z,58.25
2023-02-17T20:31:29.432Z,54.50
2023-02-17T20:33:57.130Z,49.05
2023-02-17T20:36:25.258Z,51.78
2023-02-17T20:38:53.002Z,58.45
2023-02-17T20:41:21.747Z,55.67
2023-02-17T20:43:49.851Z,53.15
2023-02-17T20:46:26.098Z,47.90
2023-02-17T20:48:54.518Z,54.97
2023-02-17T20:51:22.126Z,54.85
2023-02-17T20:53:49.742Z,51.70
2023-02-17T20:56:19.576Z,55.53
2023-02-17T20:58:47.706Z,49.95
2023-02-17T21:01:15.664Z,58.15
2023-02-17T21:03:43.290Z,53.58
2023-02-17T21:06:31.920Z,54.25
2023-02-17T21:09:05.236Z,51.58
2023-02-17T21:11:33.707Z,62.65
2023-02-17T21:14:01.188Z,52.63
2023-02-17T21:16:48.647Z,46.85
2023-02-17T21:19:19.611Z,56.20
2023-02-17T21:21:48.957Z,54.78
2023-02-17T21:24:19.212Z,57.17
2023-02-17T21:26:53.073Z,51.70
2023-02-17T21:29:20.535Z,56.13
2023-02-17T21:31:47.946Z,60.88
2023-02-17T21:34:16.866Z,62.20
2023-02-17T21:36:44.364Z,59.50
2023-02-17T21:39:11.821Z,57.92
2023-02-17T21:41:41.796Z,65.13
2023-02-17T21:44:30.706Z,68.10
2023-02-17T21:46:58.176Z,60.53
2023-02-17T21:49:25.881Z,65.32
2023-02-17T21:51:53.288Z,63.30
2023-02-17T21:54:20.724Z,66.32
2023-02-17T21:56:48.214Z,69.80
2023-02-17T21:59:15.550Z,78.40
2023-02-17T22:01:43.047Z,64.53
2023-02-17T22:04:11.107Z,80.15
2023-02-17T22:06:40.824Z,72.18
2023-02-17T22:09:14.717Z,76.88
2023-02-17T22:11:43.188Z,81.07
2023-02-17T22:14:17.377Z,73.68
2023-02-17T22:16:45.387Z,88.38
2023-02-17T22:19:21.335Z,94.28
2023-02-17T22:21:49.193Z,91.93
2023-02-17T22:24:17.031Z,89.95
2023-02-17T22:26:44.565Z,112.03
2023-02-17T22:29:12.088Z,116.97
2023-02-17T22:31:39.740Z,120.05
2023-02-17T22:34:10.107Z,109.20
2023-02-17T22:36:38.096Z,124.03
2023-02-17T22:39:07.916Z,116.22
2023-02-17T22:41:35.878Z,137.30
2023-02-17T22:44:03.999Z,134.52
2023-02-17T22:46:31.651Z,125.85
2023-02-17T22:48:59.536Z,130.88
2023-02-17T22:51:32.475Z,115.25
2023-02-17T22:56:27.757Z,129.57
2023-02-17T22:58:58.058Z,115.25
2023-02-17T23:01:28.218Z,117.03
2023-02-17T23:03:55.626Z,125.53
2023-02-17T23:06:24.968Z,100.43
2023-02-17T23:08:53.026Z,96.68
2023-02-17T23:11:43.356Z,101.85
2023-02-17T23:14:11.846Z,90.20
2023-02-17T23:16:39.630Z,89.75
2023-02-17T23:19:10.543Z,116.45
2023-02-17T23:21:38.682Z,92.78
2023-02-17T23:24:06.522Z,100.03
2023-02-17T23:26:33.994Z,131.00
2023-02-17T23:29:01.320Z,136.35
2023-02-17T23:31:28.787Z,96.10
2023-02-17T23:33:56.347Z,99.47
2023-02-17T23:36:23.697Z,148.63
2023-02-17T23:38:51.001Z,107.10
2023-02-17T23:41:18.382Z,107.45
2023-02-17T23:43:45.768Z,101.00
2023-02-17T23:46:13.258Z,95.65
2023-02-17T23:48:40.756Z,89.30
2023-02-17T23:51:08.329Z,112.22
2023-02-17T23:53:35.744Z,112.00
2023-02-17T23:56:07.758Z,78.30
2023-02-17T23:58:35.896Z,102.18
